createdAt,value
2022-10-03T00:00:11.597Z,2.60
2022-10-03T00:04:43.746Z,2.33
2022-10-03T00:08:55.586Z,2.72
2022-10-03T00:13:19.882Z,3.40
2022-10-03T00:17:31.719Z,2.90
2022-10-03T00:22:01.826Z,4.20
2022-10-03T00:26:27.329Z,3.00
2022-10-03T00:30:42.736Z,3.53
2022-10-03T00:34:51.194Z,3.67
2022-10-03T00:39:12.117Z,4.22
2022-10-03T00:43:56.435Z,3.17
2022-10-03T00:48:20.472Z,3.05
2022-10-03T00:52:45.334Z,3.65
2022-10-03T00:56:57.831Z,3.40
2022-10-03T01:01:20.743Z,3.67
2022-10-03T01:05:41.269Z,4.63
2022-10-03T01:09:56.028Z,4.30
2022-10-03T01:14:27.263Z,3.97
2022-10-03T01:18:45.637Z,3.53
2022-10-03T01:23:12.402Z,3.50
2022-10-03T01:27:26.686Z,3.65
2022-10-03T01:31:57.399Z,3.83
2022-10-03T01:36:12.118Z,3.83
2022-10-03T01:40:40.897Z,3.90
2022-10-03T01:45:08.809Z,3.65
2022-10-03T01:49:19.861Z,3.17
2022-10-03T01:54:13.541Z,3.33
2022-10-03T01:58:56.754Z,3.65
2022-10-03T02:03:14.563Z,3.05
2022-10-03T02:07:49.189Z,2.95
2022-10-03T02:11:52.238Z,2.70
2022-10-03T02:16:21.324Z,2.83
2022-10-03T02:20:43.354Z,2.95
2022-10-03T02:24:57.442Z,2.70
2022-10-03T02:29:13.798Z,2.97
2022-10-03T02:33:37.964Z,2.75
2022-10-03T02:38:15.582Z,3.00
2022-10-03T02:42:45.828Z,2.53
2022-10-03T02:47:00.873Z,3.17
2022-10-03T02:51:37.017Z,1.92
2022-10-03T03:00:09.509Z,2.30
2022-10-03T03:04:21.167Z,2.60
2022-10-03T03:08:24.841Z,2.22
2022-10-03T03:12:51.641Z,2.70
2022-10-03T03:17:19.440Z,2.25
2022-10-03T03:21:53.178Z,2.50
2022-10-03T03:26:18.540Z,2.67
2022-10-03T03:30:25.601Z,3.03
2022-10-03T03:34:49.515Z,3.08
2022-10-03T03:39:18.919Z,3.30
2022-10-03T03:43:44.695Z,3.70
2022-10-03T03:47:59.892Z,3.13
2022-10-03T03:52:35.099Z,3.70
2022-10-03T03:56:43.777Z,3.85
2022-10-03T04:01:21.253Z,3.65
2022-10-03T04:05:50.604Z,3.47
2022-10-03T04:10:27.697Z,3.83
2022-10-03T04:14:58.903Z,3.42
2022-10-03T04:19:12.677Z,4.10
2022-10-03T04:23:34.073Z,3.15
2022-10-03T04:27:44.525Z,2.70
2022-10-03T04:32:22.162Z,3.33
2022-10-03T04:36:43.610Z,3.42
2022-10-03T04:41:12.426Z,3.22
2022-10-03T04:45:28.806Z,3.13
2022-10-03T04:49:42.640Z,3.15
2022-10-03T04:54:06.740Z,3.13
2022-10-03T04:58:30.546Z,3.63
2022-10-03T05:02:58.155Z,3.47
2022-10-03T05:07:19.876Z,3.45
2022-10-03T05:11:59.594Z,2.90
2022-10-03T05:16:14.228Z,3.75
2022-10-03T06:07:31.031Z,3.67
2022-10-03T06:11:40.813Z,2.97
2022-10-03T06:15:55.868Z,3.42
2022-10-03T06:20:47.735Z,4.25
2022-10-03T06:24:58.468Z,4.35
2022-10-03T06:29:36.960Z,5.60
2022-10-03T06:34:02.122Z,5.00
2022-10-03T06:38:15.961Z,4.75
2022-10-03T06:42:31.748Z,4.95
2022-10-03T06:46:59.942Z,4.00
2022-10-03T06:51:40.246Z,4.53
2022-10-03T06:55:50.823Z,4.65
2022-10-03T07:00:17.444Z,4.32
2022-10-03T07:04:55.038Z,4.65
2022-10-03T07:09:36.155Z,5.63
2022-10-03T07:18:37.975Z,6.30
2022-10-03T07:23:09.187Z,4.65
2022-10-03T07:27:33.854Z,3.60
2022-10-03T07:31:40.617Z,3.95
2022-10-03T07:36:51.083Z,5.57
2022-10-03T07:41:06.328Z,5.78
2022-10-03T07:45:52.078Z,11.07
2022-10-03T07:50:18.153Z,11.32
2022-10-03T07:54:37.730Z,11.73
2022-10-03T07:59:25.011Z,10.98
2022-10-03T08:03:46.866Z,11.52
2022-10-03T08:08:37.970Z,10.15
2022-10-03T08:13:31.163Z,10.50
2022-10-03T08:17:57.302Z,10.30
2022-10-03T08:22:09.645Z,8.50
2022-10-03T08:32:26.903Z,4.73
2022-10-03T08:57:30.792Z,7.77
2022-10-03T09:26:19.691Z,5.03
2022-10-03T09:36:25.191Z,5.38
2022-10-03T09:55:02.203Z,4.80
2022-10-03T09:59:41.541Z,4.32
2022-10-03T10:04:55.205Z,4.90
2022-10-03T10:27:42.217Z,2.55
2022-10-03T11:03:01.098Z,2.78
2022-10-03T11:07:38.596Z,1.90
2022-10-03T11:12:17.981Z,2.22
2022-10-03T11:27:09.129Z,2.17
2022-10-03T11:31:29.264Z,2.10
2022-10-03T11:41:20.753Z,1.77
2022-10-03T12:12:00.491Z,1.45
2022-10-03T13:00:36.773Z,1.63
2022-10-03T13:05:06.829Z,1.63
2022-10-03T13:09:28.755Z,1.60
2022-10-03T13:13:57.559Z,1.75
2022-10-03T13:18:44.583Z,1.50
2022-10-03T13:23:33.765Z,1.65
2022-10-03T13:28:05.127Z,1.65
2022-10-03T13:32:46.346Z,1.58
2022-10-03T13:37:39.889Z,1.42
2022-10-03T13:47:23.173Z,1.60
2022-10-03T13:51:53.676Z,1.70
2022-10-03T13:56:41.140Z,1.67
2022-10-03T14:24:56.885Z,1.67
2022-10-03T14:31:05.957Z,2.00
2022-10-03T15:01:48.917Z,1.90
2022-10-03T15:12:21.778Z,1.50
2022-10-03T15:40:09.485Z,2.10
2022-10-03T15:44:47.174Z,1.98
2022-10-03T15:53:36.987Z,1.55
2022-10-03T15:57:48.230Z,1.55
2022-10-03T16:01:54.878Z,1.75
2022-10-03T16:06:48.589Z,2.10
2022-10-03T16:11:15.381Z,1.60
2022-10-03T16:15:18.280Z,2.03
2022-10-03T16:19:58.460Z,1.70
2022-10-03T16:24:07.182Z,1.77
2022-10-03T16:32:39.268Z,1.60
2022-10-03T16:36:50.496Z,1.70
2022-10-03T16:41:33.276Z,1.95
2022-10-03T16:45:42.122Z,1.80
2022-10-03T16:50:15.644Z,1.73
2022-10-03T16:54:20.558Z,2.08
2022-10-03T16:58:33.584Z,2.28
2022-10-03T17:02:39.087Z,1.92
2022-10-03T17:06:48.357Z,1.90
2022-10-03T17:10:58.385Z,2.22
2022-10-03T17:15:09.190Z,1.90
2022-10-03T17:19:34.683Z,1.90
2022-10-03T17:23:50.493Z,1.70
2022-10-03T17:27:55.028Z,1.90
2022-10-03T17:32:37.539Z,2.05
2022-10-03T17:37:07.531Z,1.70
2022-10-03T17:41:18.969Z,2.00
2022-10-03T18:56:48.737Z,2.05
2022-10-03T19:01:06.603Z,2.20
2022-10-03T19:05:28.241Z,2.28
2022-10-03T19:09:40.008Z,2.25
2022-10-03T19:13:54.231Z,2.28
2022-10-03T19:18:21.862Z,2.10
2022-10-03T19:22:34.329Z,2.45
2022-10-03T19:26:38.381Z,2.35
2022-10-03T19:30:43.263Z,2.10
2022-10-03T19:34:48.717Z,3.28
2022-10-03T19:38:54.550Z,4.00
2022-10-03T19:43:05.444Z,4.50
2022-10-03T19:47:22.302Z,5.45
2022-10-03T19:51:27.028Z,6.03
2022-10-03T19:55:32.968Z,5.72
2022-10-03T19:59:58.604Z,4.30
2022-10-03T20:04:01.600Z,4.40
2022-10-03T20:08:30.452Z,4.75
2022-10-03T20:12:40.338Z,4.30
2022-10-03T20:16:49.098Z,4.22
2022-10-03T20:20:54.991Z,4.88
2022-10-03T20:24:59.705Z,4.03
2022-10-03T20:29:14.603Z,4.20
2022-10-03T20:33:23.538Z,4.40
2022-10-03T20:37:39.576Z,4.13
2022-10-03T20:45:59.318Z,4.03
2022-10-03T20:50:43.356Z,4.30
2022-10-03T20:54:57.900Z,4.38
2022-10-03T20:59:05.724Z,4.38
2022-10-03T21:03:17.328Z,4.45
2022-10-03T21:07:32.477Z,4.82
2022-10-03T21:11:39.731Z,4.95
2022-10-03T21:15:47.883Z,4.72
2022-10-03T21:20:03.702Z,4.43
2022-10-03T21:24:11.530Z,4.87
2022-10-03T21:28:32.199Z,4.45
2022-10-03T21:33:03.146Z,4.15
2022-10-03T21:37:28.673Z,4.35
2022-10-03T21:41:47.105Z,4.10
2022-10-03T21:46:27.457Z,4.30
2022-10-03T21:50:36.865Z,4.85
2022-10-03T21:54:48.439Z,4.15
2022-10-03T21:59:19.061Z,4.35
2022-10-03T22:03:25.835Z,3.65
2022-10-03T22:07:42.859Z,3.58
2022-10-03T22:11:53.031Z,3.97
2022-10-03T22:16:30.622Z,4.28
2022-10-03T22:20:35.527Z,4.30
2022-10-03T22:24:48.985Z,4.50
2022-10-03T22:29:04.580Z,4.30
2022-10-03T22:33:23.397Z,3.95
2022-10-03T22:37:27.022Z,4.13
2022-10-03T22:41:31.238Z,4.28
2022-10-03T22:45:40.419Z,4.40
2022-10-03T22:49:47.510Z,4.38
2022-10-03T22:53:58.455Z,4.20
2022-10-03T22:58:02.511Z,4.20
2022-10-03T23:02:09.390Z,4.15
2022-10-03T23:06:38.292Z,4.45
2022-10-03T23:11:01.368Z,4.15
2022-10-03T23:15:06.656Z,4.35
2022-10-03T23:20:06.431Z,4.10
2022-10-03T23:24:39.397Z,4.30
2022-10-03T23:29:00.729Z,4.20
2022-10-03T23:33:03.951Z,4.60
2022-10-03T23:37:15.743Z,4.03
2022-10-03T23:41:38.985Z,4.15
2022-10-03T23:45:43.682Z,4.40
2022-10-03T23:49:48.569Z,4.25
2022-10-03T23:53:54.313Z,4.18
2022-10-03T23:57:57.830Z,3.73
